sensor_id;sensor_type;location;lat;lon;timestamp;pressure;altitude;pressure_sealevel;temperature;humidity
45050;BME280;61798;48.048;-1.928;2024-03-23T00:52:00;101061.31;;;4.98;100.00
45050;BME280;61798;48.048;-1.928;2024-03-23T00:54:06;101013.50;;;4.70;100.00
45050;BME280;61798;48.048;-1.928;2024-03-23T00:56:12;101067.03;;;5.13;100.00
45050;BME280;61798;48.048;-1.928;2024-03-23T00:58:18;101080.84;;;5.17;100.00
45050;BME280;61798;48.048;-1.928;2024-03-23T01:00:23;101056.19;;;4.86;100.00
45050;BME280;61798;48.048;-1.928;2024-03-23T01:02:29;101073.50;;;5.01;100.00
45050;BME280;61798;48.048;-1.928;2024-03-23T01:04:35;101071.50;;;5.03;100.00
45050;BME280;61798;48.048;-1.928;2024-03-23T01:06:41;101046.63;;;4.55;100.00
45050;BME280;61798;48.048;-1.928;2024-03-23T01:08:47;101051.22;;;4.73;100.00
45050;BME280;61798;48.048;-1.928;2024-03-23T01:10:55;101099.66;;;4.95;100.00
45050;BME280;61798;48.048;-1.928;2024-03-23T01:13:00;101086.66;;;4.82;100.00
45050;BME280;61798;48.048;-1.928;2024-03-23T01:15:06;101096.69;;;4.99;100.00
45050;BME280;61798;48.048;-1.928;2024-03-23T01:17:12;101102.31;;;4.95;100.00
45050;BME280;61798;48.048;-1.928;2024-03-23T01:19:18;101115.16;;;4.90;100.00
45050;BME280;61798;48.048;-1.928;2024-03-23T01:21:24;101109.59;;;4.93;100.00
45050;BME280;61798;48.048;-1.928;2024-03-23T01:23:30;101087.50;;;4.93;100.00
45050;BME280;61798;48.048;-1.928;2024-03-23T01:25:35;101092.25;;;4.89;100.00
45050;BME280;61798;48.048;-1.928;2024-03-23T01:27:41;101096.44;;;4.82;100.00
45050;BME280;61798;48.048;-1.928;2024-03-23T01:29:47;101113.91;;;4.94;100.00
45050;BME280;61798;48.048;-1.928;2024-03-23T01:31:53;101091.16;;;4.72;100.00
45050;BME280;61798;48.048;-1.928;2024-03-23T01:33:59;101111.56;;;4.71;100.00
45050;BME280;61798;48.048;-1.928;2024-03-23T01:36:05;101118.28;;;4.75;100.00
45050;BME280;61798;48.048;-1.928;2024-03-23T01:38:11;101085.72;;;4.63;100.00
45050;BME280;61798;48.048;-1.928;2024-03-23T01:40:17;101092.84;;;4.73;100.00
45050;BME280;61798;48.048;-1.928;2024-03-23T01:42:23;101125.53;;;4.83;100.00
45050;BME280;61798;48.048;-1.928;2024-03-23T01:44:28;101106.81;;;4.85;100.00
45050;BME280;61798;48.048;-1.928;2024-03-23T01:46:38;101096.06;;;4.76;100.00
45050;BME280;61798;48.048;-1.928;2024-03-23T01:48:44;101087.41;;;4.54;100.00
45050;BME280;61798;48.048;-1.928;2024-03-23T01:50:51;101089.53;;;4.61;100.00
45050;BME280;61798;48.048;-1.928;2024-03-23T01:52:57;101107.06;;;4.82;100.00
45050;BME280;61798;48.048;-1.928;2024-03-23T01:55:03;101114.78;;;4.75;100.00
45050;BME280;61798;48.048;-1.928;2024-03-23T01:57:10;101115.03;;;4.82;100.00
45050;BME280;61798;48.048;-1.928;2024-03-23T01:59:16;101090.78;;;4.47;100.00
45050;BME280;61798;48.048;-1.928;2024-03-23T02:01:22;101111.56;;;4.71;100.00
45050;BME280;61798;48.048;-1.928;2024-03-23T02:03:28;101131.25;;;4.79;100.00
45050;BME280;61798;48.048;-1.928;2024-03-23T02:05:34;101093.69;;;4.63;100.00
45050;BME280;61798;48.048;-1.928;2024-03-23T02:07:40;101129.88;;;4.74;100.00
45050;BME280;61798;48.048;-1.928;2024-03-23T02:09:46;101109.50;;;4.65;100.00
45050;BME280;61798;48.048;-1.928;2024-03-23T02:11:52;101113.50;;;4.79;100.00
45050;BME280;61798;48.048;-1.928;2024-03-23T02:13:58;101127.75;;;4.88;100.00
45050;BME280;61798;48.048;-1.928;2024-03-23T02:16:05;101135.31;;;4.83;100.00
45050;BME280;61798;48.048;-1.928;2024-03-23T02:18:11;101141.59;;;4.82;100.00
45050;BME280;61798;48.048;-1.928;2024-03-23T02:20:17;101123.59;;;4.75;100.00
45050;BME280;61798;48.048;-1.928;2024-03-23T02:22:22;101122.06;;;4.63;100.00
45050;BME280;61798;48.048;-1.928;2024-03-23T02:24:29;101133.09;;;4.68;100.00
45050;BME280;61798;48.048;-1.928;2024-03-23T02:26:35;101122.47;;;4.68;100.00
45050;BME280;61798;48.048;-1.928;2024-03-23T02:28:41;101122.63;;;4.76;100.00
45050;BME280;61798;48.048;-1.928;2024-03-23T02:30:47;101090.38;;;4.41;100.00
45050;BME280;61798;48.048;-1.928;2024-03-23T02:32:52;101098.72;;;4.67;100.00
45050;BME280;61798;48.048;-1.928;2024-03-23T02:34:58;101090.78;;;4.57;100.00
45050;BME280;61798;48.048;-1.928;2024-03-23T02:37:10;101113.25;;;4.62;100.00
45050;BME280;61798;48.048;-1.928;2024-03-23T02:39:16;101114.81;;;4.65;100.00
45050;BME280;61798;48.048;-1.928;2024-03-23T02:41:22;101119.41;;;4.63;100.00
45050;BME280;61798;48.048;-1.928;2024-03-23T02:43:30;101122.34;;;4.60;100.00
45050;BME280;61798;48.048;-1.928;2024-03-23T02:45:36;101121.38;;;4.51;100.00
45050;BME280;61798;48.048;-1.928;2024-03-23T02:47:43;101114.94;;;4.43;100.00
45050;BME280;61798;48.048;-1.928;2024-03-23T02:49:48;101134.78;;;4.69;100.00
45050;BME280;61798;48.048;-1.928;2024-03-23T02:51:54;101093.31;;;4.48;100.00
45050;BME280;61798;48.048;-1.928;2024-03-23T02:54:00;101126.94;;;4.68;100.00
45050;BME280;61798;48.048;-1.928;2024-03-23T02:56:06;101127.91;;;4.67;100.00
45050;BME280;61798;48.048;-1.928;2024-03-23T02:58:12;101129.06;;;4.64;100.00
45050;BME280;61798;48.048;-1.928;2024-03-23T03:00:18;101143.59;;;4.70;100.00
45050;BME280;61798;48.048;-1.928;2024-03-23T03:02:24;101133.94;;;4.59;100.00
45050;BME280;61798;48.048;-1.928;2024-03-23T03:04:30;101122.47;;;4.68;100.00
45050;BME280;61798;48.048;-1.928;2024-03-23T03:06:36;101132.28;;;4.48;100.00
45050;BME280;61798;48.048;-1.928;2024-03-23T03:08:42;101140.53;;;4.44;100.00
45050;BME280;61798;48.048;-1.928;2024-03-23T03:10:48;101120.97;;;4.36;100.00
45050;BME280;61798;48.048;-1.928;2024-03-23T03:12:54;101154.63;;;4.65;100.00
45050;BME280;61798;48.048;-1.928;2024-03-23T03:15:00;101130.59;;;4.47;100.00
45050;BME280;61798;48.048;-1.928;2024-03-23T03:17:06;101123.72;;;4.54;100.00
45050;BME280;61798;48.048;-1.928;2024-03-23T03:19:11;101123.03;;;4.62;100.00
45050;BME280;61798;48.048;-1.928;2024-03-23T03:21:20;101097.22;;;4.44;100.00
45050;BME280;61798;48.048;-1.928;2024-03-23T03:23:26;101102.50;;;4.54;100.00
45050;BME280;61798;48.048;-1.928;2024-03-23T03:25:31;101051.53;;;4.40;100.00
45050;BME280;61798;48.048;-1.928;2024-03-23T03:27:37;101066.75;;;4.48;100.00
45050;BME280;61798;48.048;-1.928;2024-03-23T03:29:43;101068.66;;;4.66;100.00
45050;BME280;61798;48.048;-1.928;2024-03-23T03:31:49;101067.44;;;4.60;100.00
45050;BME280;61798;48.048;-1.928;2024-03-23T03:33:55;101079.59;;;4.63;100.00
45050;BME280;61798;48.048;-1.928;2024-03-23T03:36:01;101077.63;;;4.65;100.00
45050;BME280;61798;48.048;-1.928;2024-03-23T03:38:07;101097.16;;;4.74;100.00
45050;BME280;61798;48.048;-1.928;2024-03-23T03:40:13;101108.06;;;4.71;100.00
45050;BME280;61798;48.048;-1.928;2024-03-23T03:42:20;101100.41;;;4.68;100.00
45050;BME280;61798;48.048;-1.928;2024-03-23T03:44:26;101068.56;;;4.58;100.00
45050;BME280;61798;48.048;-1.928;2024-03-23T03:46:32;101062.72;;;4.44;100.00
45050;BME280;61798;48.048;-1.928;2024-03-23T03:48:38;101091.19;;;4.62;100.00
45050;BME280;61798;48.048;-1.928;2024-03-23T03:50:43;101069.13;;;4.51;100.00
45050;BME280;61798;48.048;-1.928;2024-03-23T03:52:49;101055.72;;;4.43;100.00
45050;BME280;61798;48.048;-1.928;2024-03-23T03:55:02;101095.13;;;4.38;100.00
45050;BME280;61798;48.048;-1.928;2024-03-23T03:57:08;101100.69;;;4.54;100.00
45050;BME280;61798;48.048;-1.928;2024-03-23T03:59:15;101106.84;;;4.65;100.00
45050;BME280;61798;48.048;-1.928;2024-03-23T04:01:21;101106.13;;;4.63;100.00
45050;BME280;61798;48.048;-1.928;2024-03-23T04:03:26;101111.31;;;4.64;100.00
45050;BME280;61798;48.048;-1.928;2024-03-23T04:05:32;101108.22;;;4.69;100.00
45050;BME280;61798;48.048;-1.928;2024-03-23T04:07:38;101088.41;;;4.53;100.00
45050;BME280;61798;48.048;-1.928;2024-03-23T04:09:44;101110.78;;;4.41;100.00
45050;BME280;61798;48.048;-1.928;2024-03-23T04:11:50;101092.47;;;4.58;100.00
45050;BME280;61798;48.048;-1.928;2024-03-23T04:13:55;101109.38;;;4.57;100.00
45050;BME280;61798;48.048;-1.928;2024-03-23T04:16:02;101082.00;;;4.36;100.00
45050;BME280;61798;48.048;-1.928;2024-03-23T04:18:07;101084.22;;;4.41;100.00
45050;BME280;61798;48.048;-1.928;2024-03-23T04:20:13;101110.03;;;4.59;100.00
45050;BME280;61798;48.048;-1.928;2024-03-23T04:22:22;101097.09;;;4.46;100.00
45050;BME280;61798;48.048;-1.928;2024-03-23T04:24:29;101109.66;;;4.53;100.00
45050;BME280;61798;48.048;-1.928;2024-03-23T04:26:42;101107.41;;;4.49;100.00
45050;BME280;61798;48.048;-1.928;2024-03-23T04:28:48;101122.91;;;4.53;100.00
45050;BME280;61798;48.048;-1.928;2024-03-23T04:30:53;101106.69;;;4.47;100.00
45050;BME280;61798;48.048;-1.928;2024-03-23T04:32:59;101089.25;;;4.24;100.00
45050;BME280;61798;48.048;-1.928;2024-03-23T04:35:06;101080.47;;;4.23;100.00
45050;BME280;61798;48.048;-1.928;2024-03-23T04:37:15;101097.34;;;4.22;100.00
45050;BME280;61798;48.048;-1.928;2024-03-23T04:39:22;101110.63;;;4.32;100.00
45050;BME280;61798;48.048;-1.928;2024-03-23T04:41:28;101110.91;;;4.19;100.00
45050;BME280;61798;48.048;-1.928;2024-03-23T04:43:34;101127.78;;;4.38;100.00
45050;BME280;61798;48.048;-1.928;2024-03-23T04:45:39;101099.44;;;4.09;100.00
45050;BME280;61798;48.048;-1.928;2024-03-23T04:47:45;101101.66;;;4.04;100.00
45050;BME280;61798;48.048;-1.928;2024-03-23T04:49:51;101139.50;;;4.16;100.00
45050;BME280;61798;48.048;-1.928;2024-03-23T04:51:57;101118.56;;;4.02;100.00
45050;BME280;61798;48.048;-1.928;2024-03-23T04:54:03;101110.19;;;4.07;100.00
45050;BME280;61798;48.048;-1.928;2024-03-23T04:56:09;101155.59;;;4.24;100.00
45050;BME280;61798;48.048;-1.928;2024-03-23T04:58:15;101153.22;;;4.21;100.00
45050;BME280;61798;48.048;-1.928;2024-03-23T05:00:21;101147.47;;;4.16;100.00
45050;BME280;61798;48.048;-1.928;2024-03-23T05:02:28;101142.28;;;4.14;100.00
45050;BME280;61798;48.048;-1.928;2024-03-23T05:04:35;101141.47;;;4.14;100.00
45050;BME280;61798;48.048;-1.928;2024-03-23T05:06:42;101150.69;;;4.19;100.00
45050;BME280;61798;48.048;-1.928;2024-03-23T05:08:48;101146.34;;;4.18;100.00
45050;BME280;61798;48.048;-1.928;2024-03-23T05:10:55;101143.72;;;4.28;100.00
45050;BME280;61798;48.048;-1.928;2024-03-23T05:13:00;101168.03;;;4.33;100.00
45050;BME280;61798;48.048;-1.928;2024-03-23T05:15:07;101130.72;;;4.15;100.00
45050;BME280;61798;48.048;-1.928;2024-03-23T05:17:16;101162.28;;;4.28;100.00
45050;BME280;61798;48.048;-1.928;2024-03-23T05:19:21;101135.47;;;4.01;100.00
45050;BME280;61798;48.048;-1.928;2024-03-23T05:21:28;101131.13;;;4.00;100.00
45050;BME280;61798;48.048;-1.928;2024-03-23T05:23:36;101144.38;;;4.00;100.00
45050;BME280;61798;48.048;-1.928;2024-03-23T05:25:43;101137.00;;;4.04;100.00
45050;BME280;61798;48.048;-1.928;2024-03-23T05:27:49;101143.13;;;4.05;100.00
45050;BME280;61798;48.048;-1.928;2024-03-23T05:29:55;101159.63;;;4.18;100.00
45050;BME280;61798;48.048;-1.928;2024-03-23T05:32:01;101153.50;;;4.18;100.00
45050;BME280;61798;48.048;-1.928;2024-03-23T05:34:06;101157.97;;;4.17;100.00
45050;BME280;61798;48.048;-1.928;2024-03-23T05:36:12;101166.59;;;4.09;100.00
45050;BME280;61798;48.048;-1.928;2024-03-23T05:38:18;101154.44;;;4.07;100.00
45050;BME280;61798;48.048;-1.928;2024-03-23T05:40:26;101165.88;;;4.07;100.00
45050;BME280;61798;48.048;-1.928;2024-03-23T05:42:32;101161.41;;;3.98;100.00
45050;BME280;61798;48.048;-1.928;2024-03-23T05:44:38;101173.84;;;4.07;100.00
45050;BME280;61798;48.048;-1.928;2024-03-23T05:46:44;101160.72;;;4.06;100.00
45050;BME280;61798;48.048;-1.928;2024-03-23T05:49:01;101166.38;;;3.81;100.00
45050;BME280;61798;48.048;-1.928;2024-03-23T05:51:07;101173.78;;;3.77;100.00
45050;BME280;61798;48.048;-1.928;2024-03-23T05:53:17;101177.56;;;3.95;100.00
45050;BME280;61798;48.048;-1.928;2024-03-23T05:55:23;101144.47;;;3.79;100.00
45050;BME280;61798;48.048;-1.928;2024-03-23T05:57:30;101161.25;;;3.89;100.00
45050;BME280;61798;48.048;-1.928;2024-03-23T05:59:35;101149.91;;;3.77;100.00
45050;BME280;61798;48.048;-1.928;2024-03-23T06:01:41;101150.03;;;3.76;100.00
45050;BME280;61798;48.048;-1.928;2024-03-23T06:03:47;101149.66;;;3.90;100.00
45050;BME280;61798;48.048;-1.928;2024-03-23T06:05:54;101171.53;;;3.83;100.00
45050;BME280;61798;48.048;-1.928;2024-03-23T06:08:00;101163.06;;;3.89;100.00
45050;BME280;61798;48.048;-1.928;2024-03-23T06:10:06;101177.69;;;3.83;100.00
45050;BME280;61798;48.048;-1.928;2024-03-23T06:12:12;101176.44;;;3.77;100.00
45050;BME280;61798;48.048;-1.928;2024-03-23T06:14:18;101177.69;;;3.83;100.00
45050;BME280;61798;48.048;-1.928;2024-03-23T06:16:23;101159.72;;;3.55;100.00
45050;BME280;61798;48.048;-1.928;2024-03-23T06:18:30;101142.47;;;3.61;100.00
45050;BME280;61798;48.048;-1.928;2024-03-23T06:20:36;101151.22;;;3.52;100.00
45050;BME280;61798;48.048;-1.928;2024-03-23T06:22:41;101131.28;;;3.57;100.00
45050;BME280;61798;48.048;-1.928;2024-03-23T06:24:47;101166.16;;;3.63;100.00
45050;BME280;61798;48.048;-1.928;2024-03-23T06:26:53;101161.97;;;3.60;100.00
45050;BME280;61798;48.048;-1.928;2024-03-23T06:28:59;101159.13;;;3.83;100.00
45050;BME280;61798;48.048;-1.928;2024-03-23T06:31:09;101154.19;;;3.68;100.00
45050;BME280;61798;48.048;-1.928;2024-03-23T06:33:15;101138.03;;;3.72;100.00
45050;BME280;61798;48.048;-1.928;2024-03-23T06:35:21;101132.66;;;3.52;100.00
45050;BME280;61798;48.048;-1.928;2024-03-23T06:37:26;101125.66;;;3.41;100.00
45050;BME280;61798;48.048;-1.928;2024-03-23T06:39:34;101144.56;;;3.67;100.00
45050;BME280;61798;48.048;-1.928;2024-03-23T06:41:44;101131.03;;;3.61;100.00
45050;BME280;61798;48.048;-1.928;2024-03-23T06:43:56;101118.88;;;3.58;100.00
45050;BME280;61798;48.048;-1.928;2024-03-23T06:46:03;101113.72;;;3.56;100.00
45050;BME280;61798;48.048;-1.928;2024-03-23T06:48:10;101124.31;;;3.66;100.00
45050;BME280;61798;48.048;-1.928;2024-03-23T06:50:15;101120.38;;;3.51;100.00
45050;BME280;61798;48.048;-1.928;2024-03-23T06:52:21;101127.41;;;3.62;100.00
45050;BME280;61798;48.048;-1.928;2024-03-23T06:54:27;101131.75;;;3.73;100.00
45050;BME280;61798;48.048;-1.928;2024-03-23T06:56:33;101126.56;;;3.61;100.00
45050;BME280;61798;48.048;-1.928;2024-03-23T06:58:39;101122.00;;;3.83;100.00
45050;BME280;61798;48.048;-1.928;2024-03-23T07:00:45;101129.59;;;3.98;100.00
45050;BME280;61798;48.048;-1.928;2024-03-23T07:02:51;101112.06;;;3.65;100.00
45050;BME280;61798;48.048;-1.928;2024-03-23T07:04:56;101121.16;;;3.73;100.00
45050;BME280;61798;48.048;-1.928;2024-03-23T07:07:02;101137.78;;;3.95;100.00
45050;BME280;61798;48.048;-1.928;2024-03-23T07:09:08;101124.41;;;3.96;100.00
45050;BME280;61798;48.048;-1.928;2024-03-23T07:11:24;101137.22;;;3.91;100.00
45050;BME280;61798;48.048;-1.928;2024-03-23T07:13:30;101132.50;;;3.95;100.00
45050;BME280;61798;48.048;-1.928;2024-03-23T07:15:36;101140.88;;;4.00;100.00
45050;BME280;61798;48.048;-1.928;2024-03-23T07:17:42;101126.06;;;3.87;100.00
45050;BME280;61798;48.048;-1.928;2024-03-23T07:19:48;101133.34;;;3.95;100.00
45050;BME280;61798;48.048;-1.928;2024-03-23T07:21:54;101113.69;;;3.98;100.00
45050;BME280;61798;48.048;-1.928;2024-03-23T07:23:59;101098.34;;;4.01;100.00
45050;BME280;61798;48.048;-1.928;2024-03-23T07:26:05;101102.66;;;4.12;100.00
45050;BME280;61798;48.048;-1.928;2024-03-23T07:28:11;101114.81;;;4.15;100.00
45050;BME280;61798;48.048;-1.928;2024-03-23T07:30:17;101122.78;;;4.25;100.00
45050;BME280;61798;48.048;-1.928;2024-03-23T07:32:23;101116.34;;;4.18;100.00
45050;BME280;61798;48.048;-1.928;2024-03-23T07:34:29;101100.84;;;4.13;100.00
45050;BME280;61798;48.048;-1.928;2024-03-23T07:36:34;101130.59;;;4.47;100.00
45050;BME280;61798;48.048;-1.928;2024-03-23T07:38:41;101113.00;;;4.36;100.00
45050;BME280;61798;48.048;-1.928;2024-03-23T07:40:47;101142.31;;;4.54;100.00
45050;BME280;61798;48.048;-1.928;2024-03-23T07:42:55;101136.03;;;4.55;100.00
45050;BME280;61798;48.048;-1.928;2024-03-23T07:45:01;101130.88;;;4.53;100.00
45050;BME280;61798;48.048;-1.928;2024-03-23T07:47:07;101135.75;;;4.58;100.00
45050;BME280;61798;48.048;-1.928;2024-03-23T07:49:12;101078.22;;;4.39;100.00
45050;BME280;61798;48.048;-1.928;2024-03-23T07:51:21;101132.81;;;4.81;100.00
45050;BME280;61798;48.048;-1.928;2024-03-23T07:53:28;101105.03;;;4.65;100.00
45050;BME280;61798;48.048;-1.928;2024-03-23T07:55:34;101149.56;;;4.82;100.00
45050;BME280;61798;48.048;-1.928;2024-03-23T07:57:40;101141.47;;;4.93;100.00
45050;BME280;61798;48.048;-1.928;2024-03-23T07:59:46;101122.44;;;4.88;100.00
45050;BME280;61798;48.048;-1.928;2024-03-23T08:01:52;101157.22;;;5.05;100.00
45050;BME280;61798;48.048;-1.928;2024-03-23T08:03:58;101143.09;;;5.04;100.00
45050;BME280;61798;48.048;-1.928;2024-03-23T08:08:14;101173.97;;;5.15;100.00
45050;BME280;61798;48.048;-1.928;2024-03-23T08:10:20;101179.66;;;5.31;100.00
45050;BME280;61798;48.048;-1.928;2024-03-23T08:12:26;101181.34;;;5.32;100.00
45050;BME280;61798;48.048;-1.928;2024-03-23T08:14:31;101184.69;;;5.34;100.00
45050;BME280;61798;48.048;-1.928;2024-03-23T08:16:37;101204.25;;;5.43;100.00
45050;BME280;61798;48.048;-1.928;2024-03-23T08:18:43;101165.94;;;5.35;100.00
45050;BME280;61798;48.048;-1.928;2024-03-23T08:20:59;101211.19;;;5.64;100.00
45050;BME280;61798;48.048;-1.928;2024-03-23T08:23:06;101174.19;;;5.42;100.00
45050;BME280;61798;48.048;-1.928;2024-03-23T08:25:12;101215.66;;;5.63;100.00
45050;BME280;61798;48.048;-1.928;2024-03-23T08:27:18;101207.44;;;5.56;100.00
45050;BME280;61798;48.048;-1.928;2024-03-23T08:29:23;101218.97;;;5.85;100.00
45050;BME280;61798;48.048;-1.928;2024-03-23T08:31:29;101215.47;;;5.75;100.00
45050;BME280;61798;48.048;-1.928;2024-03-23T08:33:35;101226.22;;;5.83;100.00
45050;BME280;61798;48.048;-1.928;2024-03-23T08:35:42;101223.13;;;5.88;100.00
45050;BME280;61798;48.048;-1.928;2024-03-23T08:37:48;101221.03;;;5.91;100.00
45050;BME280;61798;48.048;-1.928;2024-03-23T08:39:53;101223.81;;;5.90;100.00
45050;BME280;61798;48.048;-1.928;2024-03-23T08:41:59;101204.66;;;5.86;100.00
45050;BME280;61798;48.048;-1.928;2024-03-23T08:44:05;101211.22;;;5.92;100.00
45050;BME280;61798;48.048;-1.928;2024-03-23T08:46:12;101246.97;;;6.18;100.00
45050;BME280;61798;48.048;-1.928;2024-03-23T08:48:22;101264.47;;;6.20;100.00
45050;BME280;61798;48.048;-1.928;2024-03-23T08:50:28;101230.31;;;6.06;100.00
45050;BME280;61798;48.048;-1.928;2024-03-23T08:52:34;101248.94;;;6.16;100.00
45050;BME280;61798;48.048;-1.928;2024-03-23T08:54:39;101276.19;;;6.28;100.00
45050;BME280;61798;48.048;-1.928;2024-03-23T08:56:46;101260.22;;;6.28;100.00
45050;BME280;61798;48.048;-1.928;2024-03-23T08:58:52;101276.97;;;6.38;100.00
45050;BME280;61798;48.048;-1.928;2024-03-23T09:01:04;101273.22;;;6.31;100.00
45050;BME280;61798;48.048;-1.928;2024-03-23T09:03:10;101287.03;;;6.44;100.00
45050;BME280;61798;48.048;-1.928;2024-03-23T09:05:16;101276.94;;;6.48;100.00
45050;BME280;61798;48.048;-1.928;2024-03-23T09:07:21;101296.47;;;6.57;100.00
45050;BME280;61798;48.048;-1.928;2024-03-23T09:09:27;101278.44;;;6.51;100.00
45050;BME280;61798;48.048;-1.928;2024-03-23T09:11:33;101297.09;;;6.69;100.00
45050;BME280;61798;48.048;-1.928;2024-03-23T09:13:40;101302.72;;;6.66;100.00
45050;BME280;61798;48.048;-1.928;2024-03-23T09:15:48;101259.44;;;6.64;100.00
45050;BME280;61798;48.048;-1.928;2024-03-23T09:17:54;101302.38;;;6.79;100.00
45050;BME280;61798;48.048;-1.928;2024-03-23T09:20:00;101279.25;;;6.80;100.00
45050;BME280;61798;48.048;-1.928;2024-03-23T09:22:06;101287.81;;;7.10;100.00
45050;BME280;61798;48.048;-1.928;2024-03-23T09:24:12;101288.28;;;7.05;100.00
45050;BME280;61798;48.048;-1.928;2024-03-23T09:26:18;101275.50;;;6.91;100.00
45050;BME280;61798;48.048;-1.928;2024-03-23T09:28:24;101291.47;;;7.09;100.00
45050;BME280;61798;48.048;-1.928;2024-03-23T09:30:30;101283.63;;;7.26;100.00
45050;BME280;61798;48.048;-1.928;2024-03-23T09:32:36;101252.56;;;6.98;100.00
45050;BME280;61798;48.048;-1.928;2024-03-23T09:34:41;101305.78;;;7.26;100.00
45050;BME280;61798;48.048;-1.928;2024-03-23T09:36:51;101320.56;;;7.39;100.00
45050;BME280;61798;48.048;-1.928;2024-03-23T09:38:57;101327.91;;;7.45;100.00
45050;BME280;61798;48.048;-1.928;2024-03-23T09:41:07;101329.16;;;7.51;100.00
45050;BME280;61798;48.048;-1.928;2024-03-23T09:43:14;101335.72;;;7.65;100.00
45050;BME280;61798;48.048;-1.928;2024-03-23T09:45:21;101326.81;;;7.75;100.00
45050;BME280;61798;48.048;-1.928;2024-03-23T09:47:28;101337.63;;;7.73;100.00
45050;BME280;61798;48.048;-1.928;2024-03-23T09:49:34;101349.31;;;7.72;100.00
45050;BME280;61798;48.048;-1.928;2024-03-23T09:51:42;101320.69;;;7.56;100.00
45050;BME280;61798;48.048;-1.928;2024-03-23T09:53:50;101328.00;;;7.54;100.00
45050;BME280;61798;48.048;-1.928;2024-03-23T09:55:55;101353.69;;;7.81;100.00
45050;BME280;61798;48.048;-1.928;2024-03-23T09:58:02;101364.84;;;8.03;100.00
45050;BME280;61798;48.048;-1.928;2024-03-23T10:00:08;101365.81;;;8.29;100.00
45050;BME280;61798;48.048;-1.928;2024-03-23T10:02:15;101352.34;;;8.12;100.00
45050;BME280;61798;48.048;-1.928;2024-03-23T10:04:39;101370.00;;;8.05;100.00
45050;BME280;61798;48.048;-1.928;2024-03-23T10:06:45;101385.78;;;7.90;100.00
45050;BME280;61798;48.048;-1.928;2024-03-23T10:08:52;101383.34;;;7.78;100.00
45050;BME280;61798;48.048;-1.928;2024-03-23T10:11:12;101380.94;;;7.93;100.00
45050;BME280;61798;48.048;-1.928;2024-03-23T10:13:26;101378.47;;;7.92;100.00
45050;BME280;61798;48.048;-1.928;2024-03-23T10:15:36;101378.66;;;7.99;100.00
45050;BME280;61798;48.048;-1.928;2024-03-23T10:17:42;101365.63;;;7.96;100.00
45050;BME280;61798;48.048;-1.928;2024-03-23T10:19:49;101383.72;;;8.10;100.00
45050;BME280;61798;48.048;-1.928;2024-03-23T10:21:55;101352.34;;;8.04;100.00
45050;BME280;61798;48.048;-1.928;2024-03-23T10:24:08;101369.41;;;8.11;100.00
45050;BME280;61798;48.048;-1.928;2024-03-23T10:26:22;101369.63;;;8.27;100.00
45050;BME280;61798;48.048;-1.928;2024-03-23T10:28:29;101349.31;;;8.34;100.00
45050;BME280;61798;48.048;-1.928;2024-03-23T10:30:35;101331.78;;;8.31;100.00
45050;BME280;61798;48.048;-1.928;2024-03-23T10:32:41;101356.81;;;8.74;100.00
45050;BME280;61798;48.048;-1.928;2024-03-23T10:34:46;101353.19;;;8.83;100.00
45050;BME280;61798;48.048;-1.928;2024-03-23T10:36:56;101361.03;;;8.85;100.00
45050;BME280;61798;48.048;-1.928;2024-03-23T10:39:05;101367.06;;;8.95;100.00
45050;BME280;61798;48.048;-1.928;2024-03-23T10:41:12;101356.94;;;8.64;100.00
45050;BME280;61798;48.048;-1.928;2024-03-23T10:43:18;101359.22;;;8.94;100.00
45050;BME280;61798;48.048;-1.928;2024-03-23T10:45:24;101368.69;;;8.71;100.00
45050;BME280;61798;48.048;-1.928;2024-03-23T10:47:31;101363.66;;;8.76;100.00
45050;BME280;61798;48.048;-1.928;2024-03-23T10:49:38;101365.34;;;8.77;100.00
45050;BME280;61798;48.048;-1.928;2024-03-23T10:51:43;101352.00;;;8.86;100.00
45050;BME280;61798;48.048;-1.928;2024-03-23T10:53:49;101349.47;;;8.84;100.00
45050;BME280;61798;48.048;-1.928;2024-03-23T10:55:57;101335.81;;;8.96;100.00
45050;BME280;61798;48.048;-1.928;2024-03-23T10:58:04;101346.88;;;9.18;100.00
45050;BME280;61798;48.048;-1.928;2024-03-23T11:00:10;101351.53;;;9.16;100.00
45050;BME280;61798;48.048;-1.928;2024-03-23T11:02:20;101349.69;;;8.91;100.00
45050;BME280;61798;48.048;-1.928;2024-03-23T11:04:36;101362.88;;;9.01;100.00
45050;BME280;61798;48.048;-1.928;2024-03-23T11:06:44;101326.25;;;8.76;100.00
45050;BME280;61798;48.048;-1.928;2024-03-23T11:08:50;101347.03;;;9.08;100.00
45050;BME280;61798;48.048;-1.928;2024-03-23T11:11:14;101352.38;;;9.25;100.00
45050;BME280;61798;48.048;-1.928;2024-03-23T11:13:23;101343.03;;;9.29;100.00
45050;BME280;61798;48.048;-1.928;2024-03-23T11:15:29;101345.53;;;9.56;100.00
45050;BME280;61798;48.048;-1.928;2024-03-23T11:17:35;101342.03;;;9.47;100.00
45050;BME280;61798;48.048;-1.928;2024-03-23T11:19:41;101307.59;;;9.35;100.00
45050;BME280;61798;48.048;-1.928;2024-03-23T11:21:54;101313.25;;;9.57;100.00
45050;BME280;61798;48.048;-1.928;2024-03-23T11:24:15;101330.00;;;9.59;100.00
45050;BME280;61798;48.048;-1.928;2024-03-23T11:26:21;101323.81;;;9.50;100.00
45050;BME280;61798;48.048;-1.928;2024-03-23T11:28:27;101324.94;;;9.65;100.00
45050;BME280;61798;48.048;-1.928;2024-03-23T11:30:33;101320.88;;;9.94;100.00
45050;BME280;61798;48.048;-1.928;2024-03-23T11:32:39;101297.47;;;9.79;100.00
45050;BME280;61798;48.048;-1.928;2024-03-23T11:34:45;101315.72;;;9.84;100.00
45050;BME280;61798;48.048;-1.928;2024-03-23T11:37:03;101308.50;;;9.84;100.00
45050;BME280;61798;48.048;-1.928;2024-03-23T11:41:22;101294.63;;;9.81;100.00
45050;BME280;61798;48.048;-1.928;2024-03-23T11:43:28;101319.25;;;9.68;100.00
45050;BME280;61798;48.048;-1.928;2024-03-23T11:45:54;101309.28;;;10.10;100.00
45050;BME280;61798;48.048;-1.928;2024-03-23T11:48:08;101311.03;;;10.35;100.00
45050;BME280;61798;48.048;-1.928;2024-03-23T11:50:20;101292.16;;;10.52;100.00